sensor_id;sensor_type;location;lat;lon;timestamp;P1;durP1;ratioP1;P2;durP2;ratioP2
3155;SDS011;1588;50.892;7.082;2022-10-12T00:02:44;12.10;;;6.03;;
3155;SDS011;1588;50.892;7.082;2022-10-12T00:07:48;18.57;;;6.20;;
3155;SDS011;1588;50.892;7.082;2022-10-12T00:12:50;24.67;;;6.50;;
3155;SDS011;1588;50.892;7.082;2022-10-12T00:17:57;15.53;;;6.30;;
3155;SDS011;1588;50.892;7.082;2022-10-12T00:22:59;14.33;;;6.37;;
3155;SDS011;1588;50.892;7.082;2022-10-12T00:28:02;13.57;;;6.10;;
3155;SDS011;1588;50.892;7.082;2022-10-12T00:33:06;10.47;;;5.10;;
3155;SDS011;1588;50.892;7.082;2022-10-12T00:38:09;12.03;;;5.37;;
3155;SDS011;1588;50.892;7.082;2022-10-12T00:43:23;11.20;;;5.53;;
3155;SDS011;1588;50.892;7.082;2022-10-12T00:54:05;10.30;;;5.37;;
3155;SDS011;1588;50.892;7.082;2022-10-12T00:59:15;9.43;;;4.80;;
3155;SDS011;1588;50.892;7.082;2022-10-12T01:04:23;19.50;;;5.27;;
3155;SDS011;1588;50.892;7.082;2022-10-12T01:09:26;8.10;;;4.63;;
3155;SDS011;1588;50.892;7.082;2022-10-12T01:14:29;9.10;;;5.27;;
3155;SDS011;1588;50.892;7.082;2022-10-12T01:25:20;10.23;;;5.03;;
3155;SDS011;1588;50.892;7.082;2022-10-12T01:30:36;10.10;;;4.70;;
3155;SDS011;1588;50.892;7.082;2022-10-12T01:36:03;9.93;;;4.90;;
3155;SDS011;1588;50.892;7.082;2022-10-12T01:41:12;16.00;;;5.40;;
3155;SDS011;1588;50.892;7.082;2022-10-12T01:51:49;9.50;;;4.80;;
3155;SDS011;1588;50.892;7.082;2022-10-12T01:57:01;10.50;;;4.47;;
3155;SDS011;1588;50.892;7.082;2022-10-12T02:02:11;11.13;;;4.70;;
3155;SDS011;1588;50.892;7.082;2022-10-12T02:07:19;10.77;;;5.00;;
3155;SDS011;1588;50.892;7.082;2022-10-12T02:12:29;9.43;;;4.97;;
3155;SDS011;1588;50.892;7.082;2022-10-12T02:17:37;22.67;;;5.37;;
3155;SDS011;1588;50.892;7.082;2022-10-12T02:22:42;18.30;;;5.33;;
3155;SDS011;1588;50.892;7.082;2022-10-12T02:27:49;7.97;;;4.50;;
3155;SDS011;1588;50.892;7.082;2022-10-12T02:32:58;12.23;;;4.83;;
3155;SDS011;1588;50.892;7.082;2022-10-12T02:38:08;12.73;;;5.37;;
3155;SDS011;1588;50.892;7.082;2022-10-12T02:43:15;15.33;;;5.27;;
3155;SDS011;1588;50.892;7.082;2022-10-12T02:48:23;6.93;;;3.83;;
3155;SDS011;1588;50.892;7.082;2022-10-12T02:53:26;10.83;;;5.03;;
3155;SDS011;1588;50.892;7.082;2022-10-12T02:58:29;11.60;;;4.27;;
3155;SDS011;1588;50.892;7.082;2022-10-12T03:03:33;11.93;;;4.80;;
3155;SDS011;1588;50.892;7.082;2022-10-12T03:08:36;14.20;;;4.90;;
3155;SDS011;1588;50.892;7.082;2022-10-12T03:13:41;10.40;;;5.17;;
3155;SDS011;1588;50.892;7.082;2022-10-12T03:18:44;10.93;;;5.03;;
3155;SDS011;1588;50.892;7.082;2022-10-12T03:23:47;8.97;;;4.70;;
3155;SDS011;1588;50.892;7.082;2022-10-12T03:28:49;9.87;;;4.40;;
3155;SDS011;1588;50.892;7.082;2022-10-12T03:33:52;12.43;;;4.90;;
3155;SDS011;1588;50.892;7.082;2022-10-12T03:38:55;20.70;;;5.20;;
3155;SDS011;1588;50.892;7.082;2022-10-12T03:43:57;12.90;;;4.57;;
3155;SDS011;1588;50.892;7.082;2022-10-12T03:49:02;9.13;;;4.27;;
3155;SDS011;1588;50.892;7.082;2022-10-12T03:54:05;12.00;;;4.80;;
3155;SDS011;1588;50.892;7.082;2022-10-12T03:59:07;10.80;;;4.87;;
3155;SDS011;1588;50.892;7.082;2022-10-12T04:04:11;8.10;;;4.30;;
3155;SDS011;1588;50.892;7.082;2022-10-12T04:09:13;9.57;;;3.80;;
3155;SDS011;1588;50.892;7.082;2022-10-12T04:14:20;23.73;;;5.63;;
3155;SDS011;1588;50.892;7.082;2022-10-12T04:19:23;10.20;;;5.17;;
3155;SDS011;1588;50.892;7.082;2022-10-12T04:24:30;18.33;;;5.57;;
3155;SDS011;1588;50.892;7.082;2022-10-12T04:29:32;8.03;;;4.10;;
3155;SDS011;1588;50.892;7.082;2022-10-12T04:34:41;8.00;;;4.60;;
3155;SDS011;1588;50.892;7.082;2022-10-12T04:39:43;8.57;;;3.67;;
3155;SDS011;1588;50.892;7.082;2022-10-12T04:44:45;12.50;;;4.50;;
3155;SDS011;1588;50.892;7.082;2022-10-12T04:49:49;10.07;;;4.73;;
3155;SDS011;1588;50.892;7.082;2022-10-12T04:54:51;10.77;;;5.00;;
3155;SDS011;1588;50.892;7.082;2022-10-12T04:59:55;11.33;;;4.30;;
3155;SDS011;1588;50.892;7.082;2022-10-12T05:05:18;9.33;;;4.30;;
3155;SDS011;1588;50.892;7.082;2022-10-12T05:10:23;13.77;;;4.60;;
3155;SDS011;1588;50.892;7.082;2022-10-12T05:15:35;19.70;;;4.93;;
3155;SDS011;1588;50.892;7.082;2022-10-12T05:20:39;10.30;;;4.40;;
3155;SDS011;1588;50.892;7.082;2022-10-12T05:25:41;10.53;;;4.67;;
3155;SDS011;1588;50.892;7.082;2022-10-12T05:30:43;9.10;;;4.13;;
3155;SDS011;1588;50.892;7.082;2022-10-12T05:36:06;20.70;;;4.53;;
3155;SDS011;1588;50.892;7.082;2022-10-12T05:41:09;15.00;;;4.53;;
3155;SDS011;1588;50.892;7.082;2022-10-12T05:46:11;9.20;;;4.47;;
3155;SDS011;1588;50.892;7.082;2022-10-12T05:51:15;9.80;;;4.30;;
3155;SDS011;1588;50.892;7.082;2022-10-12T05:56:17;12.07;;;5.53;;
3155;SDS011;1588;50.892;7.082;2022-10-12T06:01:19;14.20;;;5.10;;
3155;SDS011;1588;50.892;7.082;2022-10-12T06:06:35;13.80;;;4.50;;
3155;SDS011;1588;50.892;7.082;2022-10-12T06:11:56;10.50;;;4.63;;
3155;SDS011;1588;50.892;7.082;2022-10-12T06:16:58;13.87;;;4.77;;
3155;SDS011;1588;50.892;7.082;2022-10-12T06:22:02;15.63;;;4.93;;
3155;SDS011;1588;50.892;7.082;2022-10-12T06:27:05;8.77;;;3.70;;
3155;SDS011;1588;50.892;7.082;2022-10-12T06:32:07;12.83;;;4.20;;
3155;SDS011;1588;50.892;7.082;2022-10-12T06:37:11;12.70;;;5.00;;
3155;SDS011;1588;50.892;7.082;2022-10-12T06:42:14;17.03;;;4.90;;
3155;SDS011;1588;50.892;7.082;2022-10-12T06:47:16;10.23;;;4.30;;
3155;SDS011;1588;50.892;7.082;2022-10-12T06:52:20;13.63;;;5.50;;
3155;SDS011;1588;50.892;7.082;2022-10-12T06:57:22;16.70;;;5.27;;
3155;SDS011;1588;50.892;7.082;2022-10-12T07:02:25;12.70;;;4.83;;
3155;SDS011;1588;50.892;7.082;2022-10-12T07:07:29;10.93;;;4.87;;
3155;SDS011;1588;50.892;7.082;2022-10-12T07:12:34;12.40;;;4.93;;
3155;SDS011;1588;50.892;7.082;2022-10-12T07:17:37;10.83;;;4.80;;
3155;SDS011;1588;50.892;7.082;2022-10-12T07:22:40;12.57;;;5.40;;
3155;SDS011;1588;50.892;7.082;2022-10-12T07:27:45;17.20;;;6.10;;
3155;SDS011;1588;50.892;7.082;2022-10-12T07:32:48;29.67;;;8.23;;
3155;SDS011;1588;50.892;7.082;2022-10-12T07:37:51;19.67;;;6.20;;
3155;SDS011;1588;50.892;7.082;2022-10-12T07:42:54;12.00;;;4.43;;
3155;SDS011;1588;50.892;7.082;2022-10-12T07:47:56;11.13;;;3.70;;
3155;SDS011;1588;50.892;7.082;2022-10-12T07:53:00;8.27;;;3.50;;
3155;SDS011;1588;50.892;7.082;2022-10-12T07:58:02;12.07;;;4.20;;
3155;SDS011;1588;50.892;7.082;2022-10-12T08:03:05;13.60;;;3.33;;
3155;SDS011;1588;50.892;7.082;2022-10-12T08:08:08;9.77;;;3.73;;
3155;SDS011;1588;50.892;7.082;2022-10-12T08:13:11;5.93;;;2.67;;
3155;SDS011;1588;50.892;7.082;2022-10-12T08:18:14;14.57;;;3.37;;
3155;SDS011;1588;50.892;7.082;2022-10-12T08:23:20;8.23;;;2.70;;
3155;SDS011;1588;50.892;7.082;2022-10-12T08:28:23;7.93;;;3.27;;
3155;SDS011;1588;50.892;7.082;2022-10-12T08:33:27;8.67;;;3.10;;
3155;SDS011;1588;50.892;7.082;2022-10-12T08:38:31;8.10;;;2.90;;
3155;SDS011;1588;50.892;7.082;2022-10-12T08:43:36;10.80;;;2.87;;
3155;SDS011;1588;50.892;7.082;2022-10-12T08:48:49;12.07;;;3.07;;
3155;SDS011;1588;50.892;7.082;2022-10-12T08:53:59;7.00;;;3.20;;
3155;SDS011;1588;50.892;7.082;2022-10-12T08:59:08;7.27;;;3.33;;
3155;SDS011;1588;50.892;7.082;2022-10-12T09:04:23;7.80;;;2.57;;
3155;SDS011;1588;50.892;7.082;2022-10-12T09:09:44;12.63;;;3.40;;
3155;SDS011;1588;50.892;7.082;2022-10-12T09:14:57;11.60;;;3.60;;
3155;SDS011;1588;50.892;7.082;2022-10-12T09:20:03;7.03;;;2.80;;
3155;SDS011;1588;50.892;7.082;2022-10-12T09:25:24;5.50;;;2.60;;
3155;SDS011;1588;50.892;7.082;2022-10-12T09:30:28;14.37;;;3.20;;
3155;SDS011;1588;50.892;7.082;2022-10-12T09:35:31;13.03;;;3.10;;
3155;SDS011;1588;50.892;7.082;2022-10-12T09:40:35;5.87;;;3.10;;
3155;SDS011;1588;50.892;7.082;2022-10-12T09:45:37;7.00;;;2.93;;
3155;SDS011;1588;50.892;7.082;2022-10-12T09:50:40;14.10;;;3.37;;
3155;SDS011;1588;50.892;7.082;2022-10-12T09:55:52;5.63;;;2.70;;
3155;SDS011;1588;50.892;7.082;2022-10-12T10:01:20;13.67;;;3.20;;
3155;SDS011;1588;50.892;7.082;2022-10-12T10:06:25;9.87;;;3.40;;
3155;SDS011;1588;50.892;7.082;2022-10-12T10:11:29;9.57;;;3.03;;
3155;SDS011;1588;50.892;7.082;2022-10-12T10:16:34;7.73;;;3.03;;
3155;SDS011;1588;50.892;7.082;2022-10-12T10:21:48;10.40;;;3.17;;
3155;SDS011;1588;50.892;7.082;2022-10-12T10:26:53;7.97;;;3.07;;
3155;SDS011;1588;50.892;7.082;2022-10-12T10:32:05;6.00;;;2.27;;
3155;SDS011;1588;50.892;7.082;2022-10-12T10:37:12;17.80;;;4.57;;
3155;SDS011;1588;50.892;7.082;2022-10-12T10:42:25;11.03;;;3.00;;
3155;SDS011;1588;50.892;7.082;2022-10-12T10:47:30;11.00;;;3.47;;
3155;SDS011;1588;50.892;7.082;2022-10-12T10:52:34;8.80;;;2.97;;
3155;SDS011;1588;50.892;7.082;2022-10-12T10:57:40;8.33;;;2.90;;
3155;SDS011;1588;50.892;7.082;2022-10-12T11:02:47;7.97;;;2.90;;
3155;SDS011;1588;50.892;7.082;2022-10-12T11:07:56;10.40;;;3.17;;
3155;SDS011;1588;50.892;7.082;2022-10-12T11:13:02;10.07;;;3.27;;
3155;SDS011;1588;50.892;7.082;2022-10-12T11:18:25;10.60;;;2.70;;
3155;SDS011;1588;50.892;7.082;2022-10-12T11:23:34;8.00;;;3.37;;
3155;SDS011;1588;50.892;7.082;2022-10-12T11:28:44;12.90;;;2.87;;
3155;SDS011;1588;50.892;7.082;2022-10-12T11:33:46;7.57;;;2.50;;
3155;SDS011;1588;50.892;7.082;2022-10-12T11:38:51;12.27;;;2.83;;
3155;SDS011;1588;50.892;7.082;2022-10-12T11:44:02;5.80;;;2.40;;
3155;SDS011;1588;50.892;7.082;2022-10-12T11:49:08;10.00;;;3.60;;
3155;SDS011;1588;50.892;7.082;2022-10-12T11:54:18;17.50;;;3.60;;
3155;SDS011;1588;50.892;7.082;2022-10-12T11:59:35;15.07;;;3.53;;
3155;SDS011;1588;50.892;7.082;2022-10-12T12:04:42;13.43;;;5.20;;
3155;SDS011;1588;50.892;7.082;2022-10-12T12:09:46;10.50;;;2.90;;
3155;SDS011;1588;50.892;7.082;2022-10-12T12:26:03;5.57;;;3.07;;
3155;SDS011;1588;50.892;7.082;2022-10-12T12:31:15;8.53;;;3.03;;
3155;SDS011;1588;50.892;7.082;2022-10-12T12:36:26;9.80;;;2.83;;
3155;SDS011;1588;50.892;7.082;2022-10-12T12:41:44;11.77;;;4.60;;
3155;SDS011;1588;50.892;7.082;2022-10-12T12:52:31;10.03;;;3.03;;
3155;SDS011;1588;50.892;7.082;2022-10-12T12:57:42;15.67;;;4.00;;
3155;SDS011;1588;50.892;7.082;2022-10-12T13:03:13;6.57;;;3.10;;
3155;SDS011;1588;50.892;7.082;2022-10-12T13:08:38;4.57;;;2.73;;
3155;SDS011;1588;50.892;7.082;2022-10-12T13:14:00;13.83;;;2.30;;
3155;SDS011;1588;50.892;7.082;2022-10-12T13:19:18;5.87;;;2.50;;
3155;SDS011;1588;50.892;7.082;2022-10-12T13:24:22;7.37;;;3.40;;
3155;SDS011;1588;50.892;7.082;2022-10-12T13:29:31;6.20;;;2.90;;
3155;SDS011;1588;50.892;7.082;2022-10-12T13:34:40;6.30;;;2.77;;
3155;SDS011;1588;50.892;7.082;2022-10-12T13:39:46;6.73;;;3.13;;
3155;SDS011;1588;50.892;7.082;2022-10-12T13:44:49;10.33;;;3.10;;
3155;SDS011;1588;50.892;7.082;2022-10-12T13:49:53;6.90;;;3.10;;
3155;SDS011;1588;50.892;7.082;2022-10-12T13:54:56;7.07;;;3.07;;
3155;SDS011;1588;50.892;7.082;2022-10-12T14:00:00;11.13;;;2.60;;
3155;SDS011;1588;50.892;7.082;2022-10-12T14:05:14;21.23;;;3.90;;
3155;SDS011;1588;50.892;7.082;2022-10-12T14:10:20;7.03;;;2.73;;
3155;SDS011;1588;50.892;7.082;2022-10-12T14:15:26;6.70;;;3.10;;
3155;SDS011;1588;50.892;7.082;2022-10-12T14:20:35;6.07;;;3.47;;
3155;SDS011;1588;50.892;7.082;2022-10-12T14:25:48;9.00;;;4.03;;
3155;SDS011;1588;50.892;7.082;2022-10-12T14:30:52;5.30;;;2.90;;
3155;SDS011;1588;50.892;7.082;2022-10-12T14:41:31;13.80;;;3.90;;
3155;SDS011;1588;50.892;7.082;2022-10-12T14:46:45;8.00;;;3.90;;
3155;SDS011;1588;50.892;7.082;2022-10-12T14:51:53;7.83;;;2.70;;
3155;SDS011;1588;50.892;7.082;2022-10-12T14:56:57;7.33;;;3.53;;
3155;SDS011;1588;50.892;7.082;2022-10-12T15:02:13;8.70;;;3.23;;
3155;SDS011;1588;50.892;7.082;2022-10-12T15:07:18;5.33;;;3.27;;
3155;SDS011;1588;50.892;7.082;2022-10-12T15:12:23;12.30;;;3.77;;
3155;SDS011;1588;50.892;7.082;2022-10-12T15:17:26;13.83;;;3.17;;
3155;SDS011;1588;50.892;7.082;2022-10-12T15:22:29;5.40;;;2.90;;
3155;SDS011;1588;50.892;7.082;2022-10-12T15:27:33;9.87;;;3.60;;
3155;SDS011;1588;50.892;7.082;2022-10-12T15:32:35;15.13;;;3.20;;
3155;SDS011;1588;50.892;7.082;2022-10-12T15:37:37;10.40;;;3.67;;
3155;SDS011;1588;50.892;7.082;2022-10-12T15:42:41;5.93;;;3.60;;
3155;SDS011;1588;50.892;7.082;2022-10-12T15:47:44;9.13;;;3.03;;
3155;SDS011;1588;50.892;7.082;2022-10-12T15:52:50;7.13;;;3.00;;
3155;SDS011;1588;50.892;7.082;2022-10-12T15:57:55;8.50;;;3.27;;
3155;SDS011;1588;50.892;7.082;2022-10-12T16:03:04;14.57;;;2.90;;
3155;SDS011;1588;50.892;7.082;2022-10-12T16:08:07;7.70;;;2.93;;
3155;SDS011;1588;50.892;7.082;2022-10-12T16:13:29;9.77;;;2.93;;
3155;SDS011;1588;50.892;7.082;2022-10-12T16:18:32;11.20;;;3.10;;
3155;SDS011;1588;50.892;7.082;2022-10-12T16:23:38;12.57;;;3.03;;
3155;SDS011;1588;50.892;7.082;2022-10-12T16:28:45;5.97;;;3.27;;
3155;SDS011;1588;50.892;7.082;2022-10-12T16:33:48;9.67;;;3.10;;
3155;SDS011;1588;50.892;7.082;2022-10-12T16:39:17;7.23;;;2.90;;
3155;SDS011;1588;50.892;7.082;2022-10-12T16:44:21;6.80;;;2.90;;
3155;SDS011;1588;50.892;7.082;2022-10-12T16:49:24;9.20;;;3.27;;
3155;SDS011;1588;50.892;7.082;2022-10-12T16:54:26;9.70;;;3.50;;
3155;SDS011;1588;50.892;7.082;2022-10-12T16:59:30;6.90;;;2.97;;
3155;SDS011;1588;50.892;7.082;2022-10-12T17:04:33;15.23;;;3.73;;
3155;SDS011;1588;50.892;7.082;2022-10-12T17:09:35;10.53;;;4.00;;
3155;SDS011;1588;50.892;7.082;2022-10-12T17:14:39;6.30;;;2.90;;
3155;SDS011;1588;50.892;7.082;2022-10-12T17:19:41;7.37;;;3.63;;
3155;SDS011;1588;50.892;7.082;2022-10-12T17:24:44;8.17;;;3.20;;
3155;SDS011;1588;50.892;7.082;2022-10-12T17:29:50;9.13;;;3.40;;
3155;SDS011;1588;50.892;7.082;2022-10-12T17:34:54;12.53;;;5.00;;
3155;SDS011;1588;50.892;7.082;2022-10-12T17:39:56;15.00;;;6.67;;
3155;SDS011;1588;50.892;7.082;2022-10-12T17:45:00;12.87;;;5.23;;
3155;SDS011;1588;50.892;7.082;2022-10-12T17:50:03;9.20;;;4.20;;
3155;SDS011;1588;50.892;7.082;2022-10-12T17:55:09;10.20;;;4.00;;
3155;SDS011;1588;50.892;7.082;2022-10-12T18:00:14;8.17;;;3.60;;
3155;SDS011;1588;50.892;7.082;2022-10-12T18:05:17;10.00;;;4.00;;
3155;SDS011;1588;50.892;7.082;2022-10-12T18:10:19;9.03;;;3.87;;
3155;SDS011;1588;50.892;7.082;2022-10-12T18:15:23;6.27;;;3.60;;
3155;SDS011;1588;50.892;7.082;2022-10-12T18:20:28;7.90;;;3.47;;
3155;SDS011;1588;50.892;7.082;2022-10-12T18:25:34;12.80;;;3.70;;
3155;SDS011;1588;50.892;7.082;2022-10-12T18:30:44;6.57;;;3.83;;
3155;SDS011;1588;50.892;7.082;2022-10-12T18:35:47;13.93;;;4.90;;
3155;SDS011;1588;50.892;7.082;2022-10-12T18:40:49;10.63;;;4.10;;
3155;SDS011;1588;50.892;7.082;2022-10-12T18:45:53;14.00;;;5.30;;
3155;SDS011;1588;50.892;7.082;2022-10-12T18:50:55;9.40;;;4.87;;
3155;SDS011;1588;50.892;7.082;2022-10-12T18:56:03;11.33;;;4.40;;
3155;SDS011;1588;50.892;7.082;2022-10-12T19:01:12;14.93;;;5.73;;
3155;SDS011;1588;50.892;7.082;2022-10-12T19:06:18;15.63;;;5.13;;
3155;SDS011;1588;50.892;7.082;2022-10-12T19:11:25;12.63;;;5.67;;
3155;SDS011;1588;50.892;7.082;2022-10-12T19:16:33;16.50;;;6.10;;
3155;SDS011;1588;50.892;7.082;2022-10-12T19:21:37;15.60;;;7.17;;
3155;SDS011;1588;50.892;7.082;2022-10-12T19:26:40;10.70;;;6.00;;
3155;SDS011;1588;50.892;7.082;2022-10-12T19:31:45;20.33;;;5.40;;
3155;SDS011;1588;50.892;7.082;2022-10-12T19:36:49;15.40;;;6.03;;
3155;SDS011;1588;50.892;7.082;2022-10-12T19:41:52;11.40;;;5.33;;
3155;SDS011;1588;50.892;7.082;2022-10-12T19:46:56;9.43;;;5.37;;
3155;SDS011;1588;50.892;7.082;2022-10-12T19:51:59;12.33;;;4.63;;
3155;SDS011;1588;50.892;7.082;2022-10-12T19:57:03;17.80;;;6.40;;
3155;SDS011;1588;50.892;7.082;2022-10-12T20:02:07;15.67;;;6.17;;
3155;SDS011;1588;50.892;7.082;2022-10-12T20:07:11;16.60;;;6.07;;
3155;SDS011;1588;50.892;7.082;2022-10-12T20:12:13;13.50;;;5.70;;
3155;SDS011;1588;50.892;7.082;2022-10-12T20:17:17;15.23;;;5.87;;
3155;SDS011;1588;50.892;7.082;2022-10-12T20:22:22;17.23;;;5.83;;
3155;SDS011;1588;50.892;7.082;2022-10-12T20:27:24;27.73;;;7.87;;
3155;SDS011;1588;50.892;7.082;2022-10-12T20:32:28;20.97;;;7.30;;
3155;SDS011;1588;50.892;7.082;2022-10-12T20:37:31;19.20;;;7.50;;
3155;SDS011;1588;50.892;7.082;2022-10-12T20:42:33;12.90;;;7.40;;
3155;SDS011;1588;50.892;7.082;2022-10-12T20:47:37;30.80;;;7.20;;
3155;SDS011;1588;50.892;7.082;2022-10-12T20:52:42;22.00;;;8.30;;
3155;SDS011;1588;50.892;7.082;2022-10-12T20:57:44;19.30;;;8.17;;
3155;SDS011;1588;50.892;7.082;2022-10-12T21:02:52;15.13;;;6.97;;
3155;SDS011;1588;50.892;7.082;2022-10-12T21:07:58;17.93;;;7.30;;
3155;SDS011;1588;50.892;7.082;2022-10-12T21:13:00;17.77;;;7.40;;
3155;SDS011;1588;50.892;7.082;2022-10-12T21:18:12;21.20;;;7.30;;
3155;SDS011;1588;50.892;7.082;2022-10-12T21:23:15;13.10;;;6.80;;
3155;SDS011;1588;50.892;7.082;2022-10-12T21:28:18;14.13;;;6.47;;
3155;SDS011;1588;50.892;7.082;2022-10-12T21:33:22;17.83;;;7.17;;
3155;SDS011;1588;50.892;7.082;2022-10-12T21:38:24;16.13;;;7.10;;
3155;SDS011;1588;50.892;7.082;2022-10-12T21:43:37;18.67;;;7.40;;
3155;SDS011;1588;50.892;7.082;2022-10-12T21:48:43;22.47;;;7.97;;
3155;SDS011;1588;50.892;7.082;2022-10-12T21:53:46;16.57;;;7.23;;
3155;SDS011;1588;50.892;7.082;2022-10-12T21:59:10;19.03;;;7.10;;
3155;SDS011;1588;50.892;7.082;2022-10-12T22:04:15;18.43;;;7.97;;
3155;SDS011;1588;50.892;7.082;2022-10-12T22:09:21;25.60;;;7.63;;
3155;SDS011;1588;50.892;7.082;2022-10-12T22:14:26;18.10;;;7.60;;
3155;SDS011;1588;50.892;7.082;2022-10-12T22:19:33;23.23;;;7.53;;
3155;SDS011;1588;50.892;7.082;2022-10-12T22:24:36;19.87;;;8.80;;
3155;SDS011;1588;50.892;7.082;2022-10-12T22:29:39;13.70;;;7.03;;
3155;SDS011;1588;50.892;7.082;2022-10-12T22:34:43;15.87;;;6.90;;
3155;SDS011;1588;50.892;7.082;2022-10-12T22:39:51;13.77;;;6.80;;
3155;SDS011;1588;50.892;7.082;2022-10-12T22:44:53;13.60;;;7.40;;
3155;SDS011;1588;50.892;7.082;2022-10-12T22:50:02;13.03;;;6.77;;
3155;SDS011;1588;50.892;7.082;2022-10-12T22:55:18;16.90;;;7.83;;
3155;SDS011;1588;50.892;7.082;2022-10-12T23:00:28;22.87;;;7.37;;
3155;SDS011;1588;50.892;7.082;2022-10-12T23:05:38;17.10;;;7.37;;
3155;SDS011;1588;50.892;7.082;2022-10-12T23:10:50;17.60;;;7.80;;
3155;SDS011;1588;50.892;7.082;2022-10-12T23:15:52;15.20;;;8.10;;
3155;SDS011;1588;50.892;7.082;2022-10-12T23:20:59;15.80;;;7.20;;
3155;SDS011;1588;50.892;7.082;2022-10-12T23:26:05;16.20;;;9.13;;
3155;SDS011;1588;50.892;7.082;2022-10-12T23:31:10;15.80;;;7.13;;
3155;SDS011;1588;50.892;7.082;2022-10-12T23:36:19;17.53;;;7.97;;
3155;SDS011;1588;50.892;7.082;2022-10-12T23:41:21;21.07;;;8.37;;
3155;SDS011;1588;50.892;7.082;2022-10-12T23:46:24;21.93;;;8.10;;
3155;SDS011;1588;50.892;7.082;2022-10-12T23:51:28;22.10;;;8.90;;
3155;SDS011;1588;50.892;7.082;2022-10-12T23:56:31;17.60;;;8.00;;
